createdAt,value
2018-01-04T00:01:47.153Z,34.60
2018-01-04T00:04:15.592Z,34.60
2018-01-04T00:06:43.282Z,34.60
2018-01-04T00:09:11.686Z,34.60
2018-01-04T00:14:13.002Z,34.60
2018-01-04T00:16:40.564Z,34.60
2018-01-04T00:19:08.310Z,34.60
2018-01-04T00:21:35.866Z,34.60
2018-01-04T00:24:03.439Z,34.60
2018-01-04T00:26:31.065Z,34.60
2018-01-04T00:28:58.606Z,34.60
2018-01-04T00:31:26.167Z,34.60
2018-01-04T00:33:54.553Z,34.60
2018-01-04T00:36:22.178Z,34.60
2018-01-04T00:38:49.744Z,34.60
2018-01-04T00:41:17.340Z,34.60
2018-01-04T00:43:44.966Z,34.60
2018-01-04T00:46:13.285Z,34.60
2018-01-04T00:48:40.912Z,34.60
2018-01-04T00:51:09.477Z,35.30
2018-01-04T00:53:37.293Z,34.60
2018-01-04T00:56:04.827Z,34.60
2018-01-04T00:58:32.452Z,34.60
2018-01-04T01:01:00.069Z,34.60
2018-01-04T01:03:27.631Z,34.40
2018-01-04T01:05:55.194Z,34.60
2018-01-04T01:08:22.772Z,34.60
2018-01-04T01:10:50.386Z,34.60
2018-01-04T01:13:19.005Z,34.40
2018-01-04T01:15:46.609Z,34.60
2018-01-04T01:18:14.258Z,34.60
2018-01-04T01:20:41.875Z,34.60
2018-01-04T01:23:09.431Z,34.40
2018-01-04T01:25:36.977Z,34.50
2018-01-04T01:28:05.457Z,34.50
2018-01-04T01:30:33.819Z,34.40
2018-01-04T01:33:01.640Z,34.40
2018-01-04T01:35:29.384Z,34.40
2018-01-04T01:37:56.974Z,34.40
2018-01-04T01:40:24.583Z,34.40
2018-01-04T01:42:52.932Z,34.50
2018-01-04T01:45:20.515Z,34.50
2018-01-04T01:47:48.836Z,35.10
2018-01-04T01:50:21.374Z,35.10
2018-01-04T01:52:48.967Z,35.20
2018-01-04T01:55:16.557Z,35.00
2018-01-04T01:57:44.129Z,35.30
2018-01-04T02:00:11.796Z,35.20
2018-01-04T02:02:39.391Z,35.20
2018-01-04T02:05:06.959Z,36.50
2018-01-04T02:07:34.529Z,37.20
2018-01-04T02:10:02.177Z,37.30
2018-01-04T02:12:29.755Z,37.60
2018-01-04T02:14:57.329Z,37.80
2018-01-04T02:17:24.905Z,38.10
2018-01-04T02:20:04.613Z,38.10
2018-01-04T02:22:43.965Z,38.00
2018-01-04T02:25:23.633Z,38.30
2018-01-04T02:28:03.464Z,38.30
2018-01-04T02:30:42.959Z,38.50
2018-01-04T02:33:23.153Z,38.30
2018-01-04T02:36:02.441Z,38.40
2018-01-04T02:38:42.677Z,38.30
2018-01-04T02:41:22.059Z,38.30
2018-01-04T02:44:01.468Z,38.40
2018-01-04T02:46:29.857Z,38.80
2018-01-04T02:48:58.194Z,38.60
2018-01-04T02:51:25.783Z,38.60
2018-01-04T02:53:54.217Z,38.70
2018-01-04T02:56:21.775Z,38.80
2018-01-04T02:58:49.354Z,38.80
2018-01-04T03:03:49.885Z,38.80
2018-01-04T03:06:17.533Z,38.80
2018-01-04T03:08:45.105Z,38.80
2018-01-04T03:11:12.839Z,38.70
2018-01-04T03:13:40.415Z,38.70
2018-01-04T03:16:08.034Z,38.80
2018-01-04T03:18:36.369Z,38.70
2018-01-04T03:21:03.928Z,38.80
2018-01-04T03:23:37.345Z,38.90
2018-01-04T03:26:10.579Z,38.90
2018-01-04T03:28:44.027Z,38.80
2018-01-04T03:31:17.196Z,38.70
2018-01-04T03:33:50.423Z,38.70
2018-01-04T03:36:23.583Z,38.50
2018-01-04T03:38:56.921Z,38.50
2018-01-04T03:41:30.839Z,38.60
2018-01-04T03:44:04.029Z,38.60
2018-01-04T03:46:47.353Z,38.40
2018-01-04T03:49:21.293Z,38.50
2018-01-04T03:51:54.680Z,38.50
2018-01-04T03:54:28.105Z,38.70
2018-01-04T03:57:01.291Z,38.70
2018-01-04T03:59:34.589Z,38.50
2018-01-04T04:02:07.735Z,38.70
2018-01-04T04:04:41.589Z,38.50
2018-01-04T04:07:14.805Z,38.50
2018-01-04T04:09:42.391Z,38.40
2018-01-04T04:12:10.809Z,38.50
2018-01-04T04:14:38.485Z,38.60
2018-01-04T04:17:06.047Z,38.50
2018-01-04T04:19:33.649Z,38.40
2018-01-04T04:22:01.969Z,38.10
2018-01-04T04:24:29.540Z,38.60
2018-01-04T04:26:57.155Z,38.50
2018-01-04T04:29:24.706Z,38.50
2018-01-04T04:31:52.288Z,38.60
2018-01-04T04:34:19.877Z,38.60
2018-01-04T04:36:47.536Z,38.50
2018-01-04T04:39:15.106Z,38.50
2018-01-04T04:41:42.937Z,38.70
2018-01-04T04:44:10.493Z,38.60
2018-01-04T04:46:38.109Z,38.60
2018-01-04T04:49:05.724Z,38.50
2018-01-04T04:51:33.282Z,38.40
2018-01-04T04:54:01.646Z,38.60
2018-01-04T04:56:29.965Z,38.50
2018-01-04T04:58:57.527Z,38.50
2018-01-04T05:01:25.121Z,38.50
2018-01-04T05:03:52.708Z,38.50
2018-01-04T05:06:21.083Z,38.60
2018-01-04T05:08:49.455Z,38.50
2018-01-04T05:11:18.183Z,38.50
2018-01-04T05:13:45.776Z,38.50
2018-01-04T05:16:13.333Z,38.40
2018-01-04T05:18:40.928Z,38.40
2018-01-04T05:21:09.259Z,38.30
2018-01-04T05:23:36.801Z,38.40
2018-01-04T05:26:04.510Z,38.40
2018-01-04T05:28:32.082Z,38.30
2018-01-04T05:30:59.687Z,38.30
2018-01-04T05:33:27.266Z,38.40
2018-01-04T05:35:54.994Z,38.20
2018-01-04T05:40:55.438Z,38.30
2018-01-04T05:43:23.009Z,38.20
2018-01-04T05:45:50.618Z,38.40
2018-01-04T05:48:18.300Z,38.40
2018-01-04T05:50:45.864Z,38.40
2018-01-04T05:53:13.430Z,38.30
2018-01-04T05:55:41.026Z,38.10
2018-01-04T05:58:08.594Z,38.20
2018-01-04T06:00:36.165Z,38.20
2018-01-04T06:03:03.760Z,38.30
2018-01-04T06:05:32.122Z,38.20
2018-01-04T06:08:00.462Z,38.20
2018-01-04T06:10:28.159Z,38.20
2018-01-04T06:12:55.781Z,38.40
2018-01-04T06:15:23.376Z,38.40
2018-01-04T06:20:23.886Z,38.50
2018-01-04T06:22:51.624Z,38.40
2018-01-04T06:25:19.208Z,38.40
2018-01-04T06:27:46.772Z,38.40
2018-01-04T06:32:47.248Z,38.40
2018-01-04T06:35:16.310Z,38.50
2018-01-04T06:42:50.688Z,38.50
2018-01-04T06:45:18.328Z,38.50
2018-01-04T06:47:45.908Z,38.30
2018-01-04T06:50:13.552Z,38.40
2018-01-04T06:52:41.248Z,38.70
2018-01-04T06:55:09.625Z,38.30
2018-01-04T06:57:38.058Z,38.30
2018-01-04T07:00:06.434Z,38.20
2018-01-04T07:02:34.020Z,38.20
2018-01-04T07:05:01.604Z,38.10
2018-01-04T07:07:30.044Z,38.10
2018-01-04T07:09:57.597Z,37.40
2018-01-04T07:12:25.245Z,36.00
2018-01-04T07:14:52.816Z,36.70
2018-01-04T07:17:20.386Z,37.00
2018-01-04T07:19:48.124Z,36.40
2018-01-04T07:22:15.918Z,36.50
2018-01-04T07:24:43.514Z,36.40
2018-01-04T07:27:12.468Z,36.90
2018-01-04T07:29:40.054Z,36.90
2018-01-04T07:32:09.145Z,37.90
2018-01-04T07:34:36.781Z,37.90
2018-01-04T07:37:04.346Z,38.70
2018-01-04T07:39:32.103Z,38.90
2018-01-04T07:41:59.664Z,38.90
2018-01-04T07:44:27.289Z,38.90
2018-01-04T07:46:54.864Z,37.50
2018-01-04T07:49:22.424Z,35.90
2018-01-04T07:51:50.134Z,36.50
2018-01-04T07:54:17.740Z,37.90
2018-01-04T07:56:45.334Z,39.60
2018-01-04T07:59:12.892Z,42.70
2018-01-04T08:01:40.541Z,42.30
2018-01-04T08:04:08.122Z,44.00
2018-01-04T08:06:35.742Z,44.20
2018-01-04T08:09:03.358Z,41.80
2018-01-04T08:11:31.091Z,44.80
2018-01-04T08:13:58.866Z,45.30
2018-01-04T08:16:26.412Z,44.90
2018-01-04T08:18:54.015Z,44.70
2018-01-04T08:21:21.590Z,44.40
2018-01-04T08:23:49.154Z,43.90
2018-01-04T08:26:17.674Z,43.30
2018-01-04T08:28:45.415Z,43.30
2018-01-04T08:31:12.999Z,43.10
2018-01-04T08:33:40.584Z,42.70
2018-01-04T08:36:08.964Z,42.00
2018-01-04T08:38:36.553Z,42.10
2018-01-04T08:41:04.933Z,40.00
2018-01-04T08:43:33.292Z,39.60
2018-01-04T08:46:01.652Z,40.00
2018-01-04T08:48:29.295Z,40.00
2018-01-04T08:50:56.944Z,39.60
2018-01-04T08:53:24.491Z,40.00
2018-01-04T08:55:52.033Z,41.10
2018-01-04T08:58:19.615Z,40.80
2018-01-04T09:00:47.205Z,41.00
2018-01-04T09:03:15.059Z,40.20
2018-01-04T09:05:42.643Z,40.40
2018-01-04T09:08:10.234Z,40.00
2018-01-04T09:10:38.674Z,40.00
2018-01-04T09:13:06.255Z,39.90
2018-01-04T09:15:33.856Z,39.80
2018-01-04T09:18:01.501Z,37.80
2018-01-04T09:20:29.141Z,37.10
2018-01-04T09:22:56.736Z,36.60
2018-01-04T09:25:24.371Z,36.70
2018-01-04T09:27:52.807Z,35.70
2018-01-04T09:30:20.411Z,35.90
2018-01-04T09:32:47.991Z,35.40
2018-01-04T09:35:15.588Z,36.00
2018-01-04T09:37:43.159Z,35.50
2018-01-04T09:40:10.790Z,35.70
2018-01-04T09:42:39.258Z,35.10
2018-01-04T09:45:07.639Z,40.00
2018-01-04T09:47:35.207Z,40.00
2018-01-04T09:50:02.802Z,40.00
2018-01-04T09:52:30.385Z,40.00
2018-01-04T09:54:58.708Z,40.30
2018-01-04T09:57:26.291Z,40.00
2018-01-04T09:59:54.112Z,40.00
2018-01-04T10:02:22.635Z,40.00
2018-01-04T10:04:50.301Z,40.10
2018-01-04T10:07:17.887Z,40.70
2018-01-04T10:09:46.378Z,40.00
2018-01-04T10:12:14.691Z,39.00
2018-01-04T10:14:42.329Z,39.10
2018-01-04T10:17:09.955Z,40.00
2018-01-04T10:19:37.519Z,38.70
2018-01-04T10:22:05.173Z,37.30
2018-01-04T10:24:32.747Z,37.10
2018-01-04T10:27:00.335Z,40.00
2018-01-04T10:29:28.698Z,40.10
2018-01-04T10:31:56.446Z,40.10
2018-01-04T10:34:24.145Z,41.70
2018-01-04T10:36:51.708Z,42.20
2018-01-04T10:39:19.310Z,40.10
2018-01-04T10:41:46.884Z,40.10
2018-01-04T10:44:14.542Z,40.20
2018-01-04T10:46:42.154Z,40.10
2018-01-04T10:49:09.822Z,38.80
2018-01-04T10:51:37.489Z,39.30
2018-01-04T10:54:05.065Z,39.10
2018-01-04T10:56:32.667Z,38.60
2018-01-04T10:59:00.242Z,37.60
2018-01-04T11:01:28.650Z,38.70
2018-01-04T11:03:56.506Z,38.80
2018-01-04T11:06:24.064Z,37.30
2018-01-04T11:08:52.434Z,38.10
2018-01-04T11:11:20.176Z,38.10
2018-01-04T11:13:47.725Z,38.40
2018-01-04T11:16:15.388Z,39.00
2018-01-04T11:18:42.984Z,38.30
2018-01-04T11:21:10.573Z,37.90
2018-01-04T11:23:38.178Z,37.70
2018-01-04T11:26:05.767Z,37.70
2018-01-04T11:28:33.377Z,37.90
2018-01-04T11:31:00.946Z,37.10
2018-01-04T11:33:28.594Z,37.10
2018-01-04T11:35:56.182Z,37.30
2018-01-04T11:38:25.211Z,37.00
2018-01-04T11:40:53.035Z,37.10
2018-01-04T11:43:20.690Z,36.50
2018-01-04T11:45:49.054Z,35.70
2018-01-04T11:48:16.602Z,35.70
2018-01-04T11:50:44.212Z,36.30
2018-01-04T11:53:12.599Z,35.90
2018-01-04T11:55:40.126Z,36.10
2018-01-04T11:58:08.430Z,35.80
2018-01-04T12:00:36.059Z,35.40
2018-01-04T12:03:03.592Z,35.60
2018-01-04T12:05:31.105Z,35.60
2018-01-04T12:07:59.428Z,35.70
2018-01-04T12:10:26.988Z,35.60
2018-01-04T12:12:54.628Z,35.10
2018-01-04T12:15:22.179Z,35.40
2018-01-04T12:17:49.792Z,34.80
2018-01-04T12:20:17.431Z,34.40
2018-01-04T12:22:44.998Z,35.50
2018-01-04T12:25:12.610Z,35.30
2018-01-04T12:27:40.924Z,35.80
2018-01-04T12:30:08.538Z,35.80
2018-01-04T12:32:36.122Z,35.20
2018-01-04T12:35:03.694Z,35.40
2018-01-04T12:37:31.262Z,35.80
2018-01-04T12:39:58.831Z,36.00
2018-01-04T12:42:26.421Z,35.90
2018-01-04T12:44:54.061Z,35.80
2018-01-04T12:47:21.629Z,36.10
2018-01-04T12:49:49.255Z,35.80
2018-01-04T12:52:16.938Z,35.50
2018-01-04T12:54:44.508Z,35.80
2018-01-04T12:57:12.109Z,36.70
2018-01-04T12:59:40.575Z,36.20
2018-01-04T13:02:08.136Z,36.20
2018-01-04T13:04:35.765Z,36.90
2018-01-04T13:07:03.477Z,37.40
2018-01-04T13:09:31.031Z,36.80
2018-01-04T13:11:59.409Z,37.00
2018-01-04T13:14:27.741Z,37.30
2018-01-04T13:16:55.425Z,37.40
2018-01-04T13:19:23.001Z,37.50
2018-01-04T13:21:51.332Z,37.80
2018-01-04T13:24:18.899Z,37.90
2018-01-04T13:26:46.532Z,37.80
2018-01-04T13:29:14.141Z,37.90
2018-01-04T13:31:41.757Z,37.90
2018-01-04T13:34:09.324Z,38.20
2018-01-04T13:36:36.881Z,38.00
2018-01-04T13:39:04.432Z,38.10
2018-01-04T13:41:32.033Z,38.00
2018-01-04T13:43:59.582Z,38.30
2018-01-04T13:46:27.181Z,38.10
2018-01-04T13:48:55.544Z,38.30
2018-01-04T13:51:23.157Z,38.30
2018-01-04T13:53:50.745Z,38.20
2018-01-04T13:56:19.083Z,38.30
2018-01-04T13:58:46.692Z,38.20
2018-01-04T14:01:14.255Z,38.80
2018-01-04T14:03:41.841Z,38.10
2018-01-04T14:06:10.196Z,39.90
2018-01-04T14:08:37.756Z,39.90
2018-01-04T14:11:05.363Z,40.00
2018-01-04T14:13:32.943Z,39.90
2018-01-04T14:16:00.572Z,39.90
2018-01-04T14:18:28.149Z,39.80
2018-01-04T14:20:55.839Z,39.70
2018-01-04T14:23:24.164Z,38.90
2018-01-04T14:25:51.756Z,39.00
2018-01-04T14:28:19.341Z,39.30
2018-01-04T14:30:46.913Z,38.80
2018-01-04T14:33:14.530Z,38.50
2018-01-04T14:35:42.079Z,38.50
2018-01-04T14:38:09.643Z,38.70
2018-01-04T14:40:37.280Z,38.70
2018-01-04T14:43:05.602Z,38.60
2018-01-04T14:45:33.227Z,38.50
2018-01-04T14:48:01.591Z,38.60
2018-01-04T14:50:29.286Z,38.70
2018-01-04T14:52:56.902Z,39.00
2018-01-04T14:55:24.470Z,38.70
2018-01-04T14:57:52.889Z,38.50
2018-01-04T15:00:20.452Z,38.40
2018-01-04T15:02:48.060Z,38.70
2018-01-04T15:05:15.828Z,38.70
2018-01-04T15:07:43.456Z,38.60
2018-01-04T15:10:11.006Z,38.80
2018-01-04T15:12:38.583Z,39.70
2018-01-04T15:15:06.186Z,39.90
2018-01-04T15:17:34.534Z,39.90
2018-01-04T15:20:02.188Z,39.80
2018-01-04T15:22:29.777Z,39.80
2018-01-04T15:24:58.181Z,40.40
2018-01-04T15:27:26.507Z,39.80
2018-01-04T15:29:54.188Z,39.80
2018-01-04T15:32:21.765Z,39.70
2018-01-04T15:34:50.165Z,39.80
2018-01-04T15:37:17.794Z,39.80
2018-01-04T15:39:46.114Z,40.40
2018-01-04T15:42:13.702Z,39.80
2018-01-04T15:44:41.304Z,39.70
2018-01-04T15:47:09.672Z,39.80
2018-01-04T15:49:38.022Z,39.80
2018-01-04T15:52:05.748Z,39.80
2018-01-04T15:54:33.333Z,39.80
2018-01-04T15:57:00.936Z,39.80
2018-01-04T15:59:29.273Z,39.80
2018-01-04T16:01:56.872Z,39.70
2018-01-04T16:04:25.226Z,39.80
2018-01-04T16:06:53.634Z,39.70
2018-01-04T16:09:22.007Z,39.80
2018-01-04T16:11:50.360Z,40.40
2018-01-04T16:14:17.979Z,39.70
2018-01-04T16:16:45.723Z,39.70
2018-01-04T16:19:14.104Z,39.40
2018-01-04T16:21:42.446Z,38.90
2018-01-04T16:24:10.020Z,39.00
2018-01-04T16:26:38.430Z,40.40
2018-01-04T16:29:05.998Z,39.80
2018-01-04T16:31:33.881Z,39.80
2018-01-04T16:34:01.468Z,39.80
2018-01-04T16:36:29.195Z,39.80
2018-01-04T16:38:56.807Z,39.90
2018-01-04T16:41:24.385Z,39.90
2018-01-04T16:43:52.694Z,39.90
2018-01-04T16:46:20.286Z,39.80
2018-01-04T16:48:47.855Z,39.80
2018-01-04T16:51:15.504Z,39.90
2018-01-04T16:53:43.074Z,39.80
2018-01-04T16:56:11.718Z,39.80
2018-01-04T16:58:39.327Z,39.80
2018-01-04T17:01:07.361Z,39.80
2018-01-04T17:03:34.977Z,39.80
2018-01-04T17:06:03.311Z,37.90
2018-01-04T17:08:30.880Z,37.90
2018-01-04T17:10:58.476Z,37.90
2018-01-04T17:13:26.836Z,37.60
2018-01-04T17:15:54.541Z,37.70
2018-01-04T17:18:22.139Z,37.40
2018-01-04T17:20:49.766Z,37.60
2018-01-04T17:23:17.438Z,37.40
2018-01-04T17:25:45.053Z,37.10
2018-01-04T17:28:13.459Z,37.00
2018-01-04T17:30:41.067Z,37.00
2018-01-04T17:33:08.768Z,36.60
2018-01-04T17:35:37.089Z,37.30
2018-01-04T17:38:04.709Z,37.30
2018-01-04T17:40:33.065Z,37.60
2018-01-04T17:43:00.696Z,37.60
2018-01-04T17:45:28.372Z,37.40
2018-01-04T17:47:55.971Z,37.60
2018-01-04T17:50:24.313Z,38.00
2018-01-04T17:52:51.891Z,38.10
2018-01-04T17:55:19.471Z,38.20
2018-01-04T17:57:47.075Z,38.20
2018-01-04T18:00:14.709Z,37.00
2018-01-04T18:02:42.278Z,36.50
2018-01-04T18:05:09.948Z,36.10
2018-01-04T18:07:37.509Z,35.70
2018-01-04T18:10:05.158Z,35.60
2018-01-04T18:12:32.746Z,35.80
2018-01-04T18:15:00.425Z,36.00
2018-01-04T18:17:28.007Z,36.70
2018-01-04T18:19:56.381Z,37.80
2018-01-04T18:22:24.751Z,37.50
2018-01-04T18:24:52.408Z,37.50
2018-01-04T18:27:19.971Z,36.70
2018-01-04T18:29:47.561Z,36.90
2018-01-04T18:32:15.197Z,35.70
2018-01-04T18:34:43.534Z,36.30
2018-01-04T18:37:11.114Z,35.70
2018-01-04T18:39:38.734Z,36.20
2018-01-04T18:42:06.394Z,36.30
2018-01-04T18:44:33.981Z,36.50
2018-01-04T18:47:01.586Z,36.00
2018-01-04T18:49:30.119Z,36.40
2018-01-04T18:51:57.700Z,36.50
2018-01-04T18:54:25.295Z,36.10
2018-01-04T18:56:54.030Z,35.70
2018-01-04T18:59:21.723Z,35.60
2018-01-04T19:01:49.321Z,35.60
2018-01-04T19:04:16.926Z,35.60
2018-01-04T19:06:44.563Z,35.40
2018-01-04T19:09:12.599Z,35.30
2018-01-04T19:11:41.088Z,35.00
2018-01-04T19:14:08.765Z,35.10
2018-01-04T19:16:36.442Z,36.10
2018-01-04T19:19:04.065Z,36.20
2018-01-04T19:21:32.413Z,37.20
2018-01-04T19:24:00.031Z,37.30
2018-01-04T19:26:27.651Z,36.70
2018-01-04T19:28:56.162Z,36.10
2018-01-04T19:31:23.775Z,36.10
2018-01-04T19:33:51.435Z,36.40
2018-01-04T19:36:19.034Z,36.30
2018-01-04T19:38:46.656Z,36.20
2018-01-04T19:41:14.534Z,36.00
2018-01-04T19:43:42.115Z,36.40
2018-01-04T19:46:10.522Z,36.30
2018-01-04T19:48:38.131Z,36.20
2018-01-04T19:51:05.735Z,36.30
2018-01-04T19:53:33.401Z,36.70
2018-01-04T19:56:01.072Z,36.60
2018-01-04T19:58:28.737Z,37.70
2018-01-04T20:00:56.369Z,37.30
2018-01-04T20:03:24.748Z,36.60
2018-01-04T20:05:52.381Z,36.70
2018-01-04T20:08:20.038Z,36.60
2018-01-04T20:10:47.660Z,36.80
2018-01-04T20:13:15.488Z,36.80
2018-01-04T20:15:43.898Z,37.10
2018-01-04T20:18:11.474Z,37.20
2018-01-04T20:20:39.121Z,37.00
2018-01-04T20:23:06.782Z,37.10
2018-01-04T20:25:34.409Z,36.70
2018-01-04T20:28:02.865Z,36.30
2018-01-04T20:30:30.608Z,36.40
2018-01-04T20:32:58.234Z,36.40
2018-01-04T20:35:26.719Z,36.60
2018-01-04T20:37:54.351Z,36.60
2018-01-04T20:40:22.931Z,37.00
2018-01-04T20:42:51.329Z,37.80
2018-01-04T20:45:18.971Z,37.00
2018-01-04T20:47:47.387Z,37.60
2018-01-04T20:50:15.077Z,36.90
2018-01-04T20:52:42.689Z,36.80
2018-01-04T20:55:11.361Z,37.20
2018-01-04T20:57:39.761Z,37.40
2018-01-04T21:00:07.468Z,37.00
2018-01-04T21:02:35.146Z,37.00
2018-01-04T21:05:02.880Z,37.00
2018-01-04T21:07:30.479Z,37.00
2018-01-04T21:09:58.911Z,37.00
2018-01-04T21:12:26.532Z,37.00
2018-01-04T21:14:54.956Z,37.20
2018-01-04T21:17:22.609Z,37.20
2018-01-04T21:19:50.239Z,37.10
2018-01-04T21:22:18.657Z,37.10
2018-01-04T21:24:46.299Z,37.10
2018-01-04T21:27:15.291Z,37.10
2018-01-04T21:29:42.901Z,37.30
2018-01-04T21:32:10.485Z,37.20
2018-01-04T21:34:38.856Z,37.30
2018-01-04T21:37:06.670Z,37.00
2018-01-04T21:39:34.266Z,37.00
2018-01-04T21:42:01.856Z,37.10
2018-01-04T21:44:30.393Z,37.20
2018-01-04T21:46:58.171Z,37.20
2018-01-04T21:49:25.801Z,37.40
2018-01-04T21:51:54.176Z,37.30
2018-01-04T21:54:21.951Z,37.30
2018-01-04T21:56:49.559Z,37.30
2018-01-04T21:59:17.169Z,37.40
2018-01-04T22:01:44.878Z,37.70
2018-01-04T22:04:13.235Z,38.80
2018-01-04T22:06:40.831Z,38.80
2018-01-04T22:09:09.329Z,36.20
2018-01-04T22:11:36.895Z,36.30
2018-01-04T22:14:04.773Z,35.00
2018-01-04T22:16:32.384Z,34.40
2018-01-04T22:18:59.986Z,35.50
2018-01-04T22:21:27.586Z,37.90
2018-01-04T22:23:55.245Z,36.50
2018-01-04T22:26:22.866Z,37.20
2018-01-04T22:28:50.465Z,36.10
2018-01-04T22:31:18.056Z,35.40
2018-01-04T22:33:46.426Z,34.50
2018-01-04T22:36:14.016Z,34.50
2018-01-04T22:38:41.899Z,35.70
2018-01-04T22:41:09.538Z,35.00
2018-01-04T22:43:37.916Z,35.20
2018-01-04T22:46:06.230Z,34.60
2018-01-04T22:48:33.786Z,34.60
2018-01-04T22:51:02.290Z,35.50
2018-01-04T22:53:29.850Z,35.50
2018-01-04T22:55:57.678Z,33.30
2018-01-04T22:58:25.325Z,34.80
2018-01-04T23:00:53.646Z,34.10
2018-01-04T23:03:21.336Z,34.10
2018-01-04T23:05:49.820Z,34.00
2018-01-04T23:08:17.426Z,33.90
2018-01-04T23:10:44.998Z,34.10
2018-01-04T23:13:12.584Z,34.10
2018-01-04T23:15:40.189Z,34.30
2018-01-04T23:18:07.831Z,34.60
2018-01-04T23:20:36.152Z,34.30
2018-01-04T23:23:04.642Z,34.50
2018-01-04T23:25:32.238Z,34.00
2018-01-04T23:27:59.896Z,34.90
2018-01-04T23:30:27.513Z,34.40
2018-01-04T23:32:55.078Z,34.60
2018-01-04T23:35:22.806Z,33.40
2018-01-04T23:37:51.133Z,37.00
2018-01-04T23:40:18.731Z,37.00
2018-01-04T23:42:46.516Z,37.00
2018-01-04T23:45:14.095Z,37.20
2018-01-04T23:47:41.705Z,37.30
2018-01-04T23:50:10.021Z,37.40
2018-01-04T23:52:37.618Z,37.40
2018-01-04T23:55:05.347Z,37.50
2018-01-04T23:57:32.916Z,37.60
